createdAt,value
2022-10-13T00:02:49.023Z,9.51
2022-10-13T00:07:51.227Z,9.46
2022-10-13T00:12:53.275Z,9.39
2022-10-13T00:17:54.751Z,9.38
2022-10-13T00:22:56.522Z,9.35
2022-10-13T00:27:58.662Z,9.31
2022-10-13T00:32:59.866Z,9.26
2022-10-13T00:38:01.659Z,9.24
2022-10-13T00:43:03.453Z,9.18
2022-10-13T00:48:05.445Z,9.14
2022-10-13T00:53:07.586Z,9.1
2022-10-13T00:58:09.291Z,9.05
2022-10-13T01:03:10.674Z,8.99
2022-10-13T01:08:12.477Z,8.95
2022-10-13T01:13:14.162Z,8.91
2022-10-13T01:18:15.443Z,8.81
2022-10-13T01:23:16.605Z,8.79
2022-10-13T01:28:17.910Z,8.75
2022-10-13T01:33:19.140Z,8.68
2022-10-13T01:38:20.903Z,8.62
2022-10-13T01:43:22.675Z,8.56
2022-10-13T01:48:24.643Z,8.46
2022-10-13T01:53:26.707Z,8.41
2022-10-13T01:58:28.682Z,8.37
2022-10-13T02:03:30.545Z,8.32
2022-10-13T02:08:32.560Z,8.27
2022-10-13T02:13:34.768Z,8.24
2022-10-13T02:18:36.160Z,8.13
2022-10-13T02:23:38.260Z,8.1
2022-10-13T02:28:39.571Z,8.17
2022-10-13T02:33:40.807Z,8.22
2022-10-13T02:38:42.773Z,8.25
2022-10-13T02:43:44.510Z,8.29
2022-10-13T02:48:45.619Z,8.28
2022-10-13T02:53:47.558Z,8.24
2022-10-13T02:58:49.197Z,8.26
2022-10-13T03:03:51.126Z,8.27
2022-10-13T03:08:53.029Z,8.26
2022-10-13T03:13:54.773Z,8.22
2022-10-13T03:18:56.193Z,8.27
2022-10-13T03:23:57.678Z,8.32
2022-10-13T03:28:59.953Z,8.33
2022-10-13T03:34:01.982Z,8.35
2022-10-13T03:39:04.036Z,8.38
2022-10-13T03:44:05.764Z,8.33
2022-10-13T03:49:07.905Z,8.33
2022-10-13T03:54:09.733Z,8.34
2022-10-13T03:59:11.174Z,8.32
2022-10-13T04:04:13.241Z,8.33
2022-10-13T04:09:15.070Z,8.32
2022-10-13T04:14:16.396Z,8.33
2022-10-13T04:19:18.207Z,8.3
2022-10-13T04:24:20.352Z,8.33
2022-10-13T04:29:22.159Z,8.37
2022-10-13T04:34:23.561Z,8.42
2022-10-13T04:39:25.426Z,8.47
2022-10-13T04:44:27.232Z,8.54
2022-10-13T04:49:28.366Z,8.58
2022-10-13T04:54:30.015Z,8.66
2022-10-13T04:59:32.123Z,8.71
2022-10-13T05:04:34.120Z,8.78
2022-10-13T05:09:36.103Z,8.85
2022-10-13T05:14:37.701Z,8.95
2022-10-13T05:19:38.853Z,9.03
2022-10-13T05:24:40.142Z,9.1
2022-10-13T05:29:42.005Z,9.18
2022-10-13T05:34:43.776Z,9.2
2022-10-13T05:39:48.735Z,9.25
2022-10-13T05:44:47.948Z,9.26
2022-10-13T05:49:49.288Z,9.3
2022-10-13T05:54:50.704Z,9.33
2022-10-13T05:59:52.197Z,9.33
2022-10-13T06:04:54.099Z,9.39
2022-10-13T06:09:55.471Z,9.45
2022-10-13T06:14:56.956Z,9.54
2022-10-13T06:19:58.792Z,9.6
2022-10-13T06:25:00.139Z,9.64
2022-10-13T06:30:02.344Z,9.67
2022-10-13T06:35:04.234Z,9.72
2022-10-13T06:40:06.247Z,9.76
2022-10-13T06:45:07.473Z,9.83
2022-10-13T06:50:09.583Z,9.84
2022-10-13T06:55:10.841Z,9.92
2022-10-13T07:00:12.189Z,10.03
2022-10-13T07:05:13.391Z,10.2
2022-10-13T07:10:15.289Z,10.4
2022-10-13T07:15:16.678Z,10.63
2022-10-13T07:20:18.268Z,10.91
2022-10-13T07:25:19.558Z,11.22
2022-10-13T07:30:21.274Z,11.4
2022-10-13T07:35:24.832Z,11.51
2022-10-13T07:40:24.022Z,11.59
2022-10-13T07:45:25.094Z,11.68
2022-10-13T07:50:26.906Z,11.77
2022-10-13T07:55:28.803Z,11.83
2022-10-13T08:00:30.294Z,11.89
2022-10-13T08:05:31.367Z,11.98
2022-10-13T08:10:32.867Z,12.06
2022-10-13T08:15:34.944Z,12.15
2022-10-13T08:20:41.176Z,12.25
2022-10-13T08:25:37.885Z,12.36
2022-10-13T08:30:39.727Z,12.45
2022-10-13T08:35:41.237Z,12.52
2022-10-13T08:40:42.888Z,12.58
2022-10-13T08:45:44.245Z,12.67
2022-10-13T08:50:45.414Z,12.81
2022-10-13T08:55:47.071Z,12.94
2022-10-13T09:00:48.277Z,13.06
2022-10-13T09:05:49.829Z,13.16
2022-10-13T09:10:51.813Z,13.27
2022-10-13T09:15:53.748Z,13.33
2022-10-13T09:20:55.113Z,13.32
2022-10-13T09:25:57.219Z,13.42
2022-10-13T09:30:58.492Z,13.57
2022-10-13T09:35:59.847Z,13.79
2022-10-13T09:41:01.624Z,14.03
2022-10-13T09:46:03.501Z,14.15
2022-10-13T09:51:05.510Z,14.27
2022-10-13T09:56:07.595Z,14.39
2022-10-13T10:01:09.298Z,14.6
2022-10-13T10:11:12.501Z,14.9
2022-10-13T10:16:13.856Z,15.03
2022-10-13T10:21:15.008Z,15.19
2022-10-13T10:26:20.691Z,15.31
2022-10-13T10:31:18.482Z,15.49
2022-10-13T10:36:19.830Z,15.63
2022-10-13T10:41:21.887Z,15.76
2022-10-13T10:46:23.159Z,15.88
2022-10-13T10:51:24.587Z,15.99
2022-10-13T10:56:26.310Z,16.07
2022-10-13T11:01:27.906Z,16.26
2022-10-13T11:06:29.181Z,16.45
2022-10-13T11:11:35.008Z,16.62
2022-10-13T11:16:33.179Z,16.58
2022-10-13T11:21:34.669Z,16.7
2022-10-13T11:26:35.859Z,16.87
2022-10-13T11:31:37.798Z,17.08
2022-10-13T11:36:39.886Z,17.14
2022-10-13T11:41:41.815Z,17.31
2022-10-13T11:46:43.388Z,17.42
2022-10-13T11:51:44.904Z,17.57
2022-10-13T11:56:48.584Z,17.66
2022-10-13T12:01:48.343Z,17.43
2022-10-13T12:16:54.095Z,17.58
2022-10-13T12:21:56.031Z,17.59
2022-10-13T12:26:57.433Z,17.6
2022-10-13T12:42:03.056Z,17.5
2022-10-13T12:57:06.576Z,17.45
2022-10-13T13:02:08.361Z,17.42
2022-10-13T13:07:10.410Z,17.37
2022-10-13T13:22:14.830Z,17.09
2022-10-13T13:37:20.263Z,17.19
2022-10-13T13:42:21.684Z,17.25
2022-10-13T13:57:26.982Z,17.26
2022-10-13T14:02:29.116Z,17.26
2022-10-13T14:07:30.960Z,17.19
2022-10-13T14:27:37.030Z,17.16
2022-10-13T14:32:45.181Z,17.16
2022-10-13T14:37:46.456Z,17.12
2022-10-13T14:52:50.390Z,17.04
2022-10-13T14:57:52.479Z,17.03
2022-10-13T15:02:54.361Z,17.01
2022-10-13T15:12:57.789Z,16.98
2022-10-13T15:17:58.930Z,16.95
2022-10-13T15:23:00.962Z,16.92
2022-10-13T15:28:02.718Z,16.87
2022-10-13T15:33:04.543Z,16.9
2022-10-13T15:38:06.233Z,17.5
2022-10-13T15:43:07.918Z,18.17
2022-10-13T15:48:09.759Z,18.62
2022-10-13T15:53:11.118Z,18.77
2022-10-13T15:58:13.911Z,18.77
2022-10-13T16:03:14.853Z,18.71
2022-10-13T16:08:16.154Z,18.62
2022-10-13T16:13:17.570Z,18.54
2022-10-13T16:18:18.996Z,18.44
2022-10-13T16:23:20.202Z,18.34
2022-10-13T16:28:22.364Z,18.2
2022-10-13T16:33:24.001Z,18.04
2022-10-13T16:38:25.756Z,17.9
2022-10-13T16:43:27.860Z,17.74
2022-10-13T16:48:30.139Z,17.58
2022-10-13T16:53:31.782Z,17.43
2022-10-13T16:58:34.008Z,17.24
2022-10-13T17:03:35.774Z,17.1
2022-10-13T17:08:37.674Z,16.95
2022-10-13T17:13:39.676Z,16.82
2022-10-13T17:18:41.160Z,16.68
2022-10-13T17:23:47.495Z,16.54
2022-10-13T17:28:44.873Z,16.42
2022-10-13T17:33:46.025Z,16.29
2022-10-13T17:38:47.421Z,16.19
2022-10-13T17:43:49.572Z,16.06
2022-10-13T17:48:51.491Z,15.94
2022-10-13T17:53:53.546Z,15.82
2022-10-13T17:58:55.027Z,15.72
2022-10-13T18:03:56.951Z,15.6
2022-10-13T18:08:58.757Z,15.56
2022-10-13T18:14:00.031Z,15.43
2022-10-13T18:19:02.213Z,15.32
2022-10-13T18:24:03.974Z,15.24
2022-10-13T18:29:05.905Z,15.15
2022-10-13T18:34:07.255Z,15.04
2022-10-13T18:39:09.346Z,14.94
2022-10-13T18:44:10.735Z,14.84
2022-10-13T18:49:12.722Z,14.83
2022-10-13T18:54:14.117Z,14.71
2022-10-13T18:59:15.656Z,14.63
2022-10-13T19:04:17.716Z,14.54
2022-10-13T19:09:18.948Z,14.44
2022-10-13T19:14:20.755Z,14.34
2022-10-13T19:19:22.911Z,14.26
2022-10-13T19:24:23.945Z,14.16
2022-10-13T19:29:25.123Z,14.06
2022-10-13T19:34:26.688Z,13.99
2022-10-13T19:39:28.708Z,14.02
2022-10-13T19:44:29.971Z,14.01
2022-10-13T19:49:31.603Z,13.96
2022-10-13T19:54:34.124Z,13.96
2022-10-13T19:59:35.356Z,13.92
2022-10-13T20:04:37.264Z,13.88
2022-10-13T20:09:38.447Z,13.86
2022-10-13T20:14:40.482Z,13.83
2022-10-13T20:19:42.030Z,13.8
2022-10-13T20:24:43.157Z,13.8
2022-10-13T20:29:44.339Z,13.74
2022-10-13T20:34:45.701Z,13.74
2022-10-13T20:39:46.985Z,13.72
2022-10-13T20:44:48.981Z,13.62
2022-10-13T20:49:50.767Z,13.61
2022-10-13T20:54:52.621Z,13.59
2022-10-13T20:59:53.976Z,13.53
2022-10-13T21:04:56.059Z,13.52
2022-10-13T21:09:57.802Z,13.52
2022-10-13T21:14:59.007Z,13.46
2022-10-13T21:20:00.623Z,13.46
2022-10-13T21:25:02.431Z,13.45
2022-10-13T21:30:03.744Z,13.41
2022-10-13T21:35:05.261Z,13.41
2022-10-13T21:40:06.944Z,13.41
2022-10-13T21:45:08.674Z,13.4
2022-10-13T21:50:09.947Z,13.42
2022-10-13T21:55:11.295Z,13.41
2022-10-13T22:15:17.441Z,13.36
2022-10-13T22:20:19.334Z,13.39
2022-10-13T22:25:20.782Z,13.39
2022-10-13T22:30:22.028Z,13.41
2022-10-13T22:35:23.298Z,13.35
2022-10-13T22:40:25.248Z,13.27
2022-10-13T22:45:26.789Z,13.2
2022-10-13T22:50:28.150Z,13.17
2022-10-13T22:55:30.136Z,13.12
2022-10-13T23:00:31.733Z,13.07
2022-10-13T23:05:32.913Z,13.04
2022-10-13T23:10:35.003Z,12.94
2022-10-13T23:15:36.341Z,12.86
2022-10-13T23:20:38.424Z,12.84
2022-10-13T23:25:39.817Z,12.84
2022-10-13T23:30:41.448Z,12.88
2022-10-13T23:35:42.801Z,12.94
2022-10-13T23:40:44.909Z,12.96
2022-10-13T23:45:46.154Z,12.99
2022-10-13T23:50:48.159Z,13.03
2022-10-13T23:55:49.651Z,13.02
